Flight Track Log - Related Links

Times and Time Zones

All times are in EST time to prevent confusion due to time zone crossing. See the SCX8700 flight status page for this flight to view local times or setup timezone preferences in your user account.

Time Position Orientation Groundspeed Altitude Reporting Facility
EST Latitude Longitude Course Direction KTS MPH feet Rate Location/Type
Thu 07:32:38 PM 44.8500 -93.2167 110° East 147 169 2,500  Level Minneapolis TRACON
Thu 07:34:08 PM 44.8197 -93.1000 110° East 268 308 6,500 3,118 Climbing Minneapolis Center
Thu 07:35:10 PM 44.7614 -93.0183 135° Southeast 292 336 10,400 3,504 Climbing Minneapolis Center
Thu 07:36:13 PM 44.6947 -92.9258 135° Southeast 339 390 13,800 3,168 Climbing Minneapolis Center
Thu 07:37:15 PM 44.6222 -92.8275 136° Southeast 361 415 17,000 2,603 Climbing Minneapolis Center
Thu 07:43:24 PM 44.1407 -91.9849 121° Southeast 481 554 32,500 2,392 Climbing FlightAware ADS-B (LPVM)
Thu 07:44:29 PM 44.0658 -91.8141 121° Southeast 492 566 34,300 1,125 Climbing FlightAware ADS-B (LPVM)
Thu 07:45:32 PM 43.9893 -91.6406 122° Southeast 508 585 34,900 412 Climbing FlightAware ADS-B (LPVM)
Thu 07:46:11 PM 43.9430 -91.5363 122° Southeast 505 581 35,000 71 Climbing FlightAware ADS-B (LPVM)
Thu 07:46:56 PM 43.8799 -91.4218 132° Southeast 506 582 35,000  Level FlightAware ADS-B (LPVM)
Thu 07:47:26 PM 43.8282 -91.3490 135° Southeast 505 581 35,000  Level FlightAware ADS-B (LPVM)
Thu 07:48:07 PM 43.7748 -91.2742 135° Southeast 504 580 35,000  Level FlightAware ADS-B (LPVM)
Thu 07:48:43 PM 43.7064 -91.1785 135° Southeast 504 580 35,000  Level FlightAware ADS-B (LPVM)
Thu 07:50:14 PM 43.5531 -90.9654 135° Southeast 501 577 35,000  Level FlightAware ADS-B (LPVM)
Thu 07:51:18 PM 43.4317 -90.8533 162° South 498 573 35,000  Level FlightAware ADS-B (LPVM)
Thu 07:52:00 PM 43.3399 -90.8131 162° South 498 573 35,000 -45 Level FlightAware ADS-B (LPVM)
Thu 07:53:32 PM 43.1396 -90.7258 162° South 498 573 34,900 -286 Descending FlightAware ADS-B (LPVM)
Thu 07:54:06 PM 43.0678 -90.6946 162° South 502 578 34,400 -857 Descending FlightAware ADS-B
Thu 07:54:21 PM 43.0315 -90.6789 162° South 504 580 34,200 -982 Descending FlightAware ADS-B
Thu 07:55:01 PM 43.0315 -90.6789 163° South 498 573 33,500 -973 Descending FlightAware ADS-B
Thu 07:55:35 PM 43.0040 -90.6672 162° South 497 572 33,000 -992 Descending FlightAware ADS-B (SBMG / MGF)
Thu 07:57:02 PM 42.6843 -90.5298 163° South 475 547 31,500 -1,024 Descending FlightAware ADS-B
Thu 07:57:38 PM 42.6072 -90.4969 163° South 470 541 30,900 -943 Descending FlightAware ADS-B (SBMG / MGF)
Thu 07:58:12 PM 42.5372 -90.4670 163° South 469 540 30,400 -1,000 Descending FlightAware ADS-B
Thu 07:58:56 PM 42.4471 -90.4286 163° South 462 532 29,600 -1,021 Descending FlightAware ADS-B
Thu 07:59:46 PM 42.3450 -90.3853 163° South 461 531 28,800 -956 Descending FlightAware ADS-B
Thu 08:00:49 PM 42.2227 -90.3337 163° South 453 521 27,800 -1,077 Descending FlightAware ADS-B
Thu 08:01:43 PM 42.1122 -90.2871 163° South 441 507 26,700 -1,546 Descending FlightAware ADS-B
Thu 08:02:26 PM 42.0290 -90.2525 163° South 431 496 25,300 -2,068 Descending FlightAware ADS-B
Thu 08:04:40 PM 41.7809 -90.1485 163° South 426 490 20,600 -1,963 Descending FlightAware ADS-B
Thu 08:06:00 PM 41.6411 -90.0933 163° South 416 479 18,300 -1,817 Descending Chicago Center
Thu 08:07:02 PM 41.5364 -90.0494 163° South 407 468 16,300 -2,081 Descending Chicago Center
Thu 08:08:04 PM 41.4353 -90.0069 163° South 393 452 14,000 -2,081 Descending Chicago Center
Thu 08:09:06 PM 41.3397 -89.9678 163° South 369 425 12,000 -1,452 Descending Chicago Center
Thu 08:10:08 PM 41.2508 -89.9292 162° South 345 397 11,000 -1,016 Descending Chicago Center
Thu 08:11:10 PM 41.1717 -89.9128 171° South 301 346 9,900 -1,452 Descending Chicago Center
Thu 08:12:12 PM 41.0764 -89.8950 172° South 288 331 8,000 -1,500 Descending Chicago Center
Thu 08:13:14 PM 40.9994 -89.8817 173° South 282 325 6,800 -1,355 Descending Chicago Center
Thu 08:14:16 PM 40.9306 -89.8678 171° South 260 299 5,200 -1,306 Descending Chicago Center
Thu 08:15:18 PM 40.8619 -89.8542 171° South 251 289 4,100 -1,104 Descending Chicago Center
Thu 08:16:21 PM 40.8017 -89.8431 172° South 236 272 2,900 -816 Descending Chicago Center
Thu 08:17:23 PM 40.7514 -89.8244 164° South 208 239 2,400 -387 Descending Chicago Center
Thu 08:18:25 PM 40.7147 -89.7878 143° Southeast 177 204 2,100 -532 Descending Chicago Center
Thu 08:19:27 PM 40.6900 -89.7431 126° Southeast 159 183 1,300 -726 Descending Chicago Center
Thu 08:20:29 PM 40.6689 -89.7044 126° Southeast 144 166 600 -677 Descending Chicago Center
Thu 08:22:00 PM 40.6642 -89.6933 169° South  Level Estimated

Login

Don't have an account? Register now (free) for customized features, flight alerts, and more!